Time;durP1;ratioP1;P1;durP2;ratioP2;P2;SDS_P1;SDS_P2;PMS_P1;PMS_P2;Temp;Humidity;BMP_temperature;BMP_pressure;BME280_temperature;BME280_humidity;BME280_pressure;Samples;Min_cycle;Max_cycle;Signal;HPM_P1;HPM_P2
2023/07/25 00:01:04;;;;;;;2.50;1.50;;;;;;;;;;5133658;27;20079;-85
2023/07/25 00:03:30;;;;;;;2.80;1.13;;;;;;;;;;5115906;27;20023;-85
2023/07/25 00:05:55;;;;;;;4.32;2.03;;;;;;;;;;5133860;27;20023;-86
2023/07/25 00:08:21;;;;;;;2.80;1.92;;;;;;;;;;5114560;27;20122;-85
2023/07/25 00:10:46;;;;;;;5.20;2.45;;;;;;;;;;5112658;27;20075;-85
2023/07/25 00:13:12;;;;;;;2.78;1.52;;;;;;;;;;5132732;27;20023;-85
2023/07/25 00:15:37;;;;;;;3.75;1.58;;;;;;;;;;5134135;27;20367;-85
2023/07/25 00:18:04;;;;;;;7.00;2.60;;;;;;;;;;5110267;27;20373;-86
2023/07/25 00:20:30;;;;;;;4.68;1.95;;;;;;;;;;5132563;27;20027;-86
2023/07/25 00:22:55;;;;;;;3.13;1.77;;;;;;;;;;5133686;27;20035;-87
2023/07/25 00:25:20;;;;;;;12.23;2.22;;;;;;;;;;5111278;27;20076;-85
2023/07/25 00:27:46;;;;;;;6.97;2.80;;;;;;;;;;5128389;27;20031;-85
2023/07/25 00:30:11;;;;;;;1.42;1.25;;;;;;;;;;5131774;27;20379;-86
2023/07/25 00:32:37;;;;;;;2.83;2.03;;;;;;;;;;5128401;27;20034;-86
2023/07/25 00:35:02;;;;;;;8.40;3.45;;;;;;;;;;5133400;27;20059;-85
2023/07/25 00:37:31;;;;;;;3.70;2.17;;;;;;;;;;5111465;27;20599;-86
2023/07/25 00:39:57;;;;;;;3.65;2.20;;;;;;;;;;5113169;27;20414;-84
2023/07/25 00:42:23;;;;;;;3.65;1.75;;;;;;;;;;5133333;27;20056;-84
2023/07/25 00:44:49;;;;;;;3.30;1.67;;;;;;;;;;5123091;27;20043;-84
2023/07/25 00:47:16;;;;;;;6.00;3.38;;;;;;;;;;5108875;27;20076;-85
2023/07/25 00:49:43;;;;;;;3.95;1.50;;;;;;;;;;5131738;27;20042;-86
2023/07/25 00:52:09;;;;;;;4.88;2.28;;;;;;;;;;5115453;27;20030;-87
2023/07/25 00:54:38;;;;;;;3.70;1.98;;;;;;;;;;5132994;27;20026;-88
2023/07/25 00:57:05;;;;;;;4.97;2.95;;;;;;;;;;5133978;27;20031;-87
2023/07/25 00:59:30;;;;;;;5.18;2.47;;;;;;;;;;5114468;27;20083;-87
2023/07/25 01:01:56;;;;;;;5.32;2.22;;;;;;;;;;5108629;27;20027;-84
2023/07/25 01:04:21;;;;;;;4.40;2.45;;;;;;;;;;5131291;27;20050;-85
2023/07/25 01:06:47;;;;;;;4.03;2.22;;;;;;;;;;5132810;27;20034;-85
2023/07/25 01:09:14;;;;;;;6.10;2.53;;;;;;;;;;5114839;27;20030;-84
2023/07/25 01:11:40;;;;;;;3.40;2.00;;;;;;;;;;5133045;27;20030;-84
2023/07/25 01:14:06;;;;;;;4.93;3.05;;;;;;;;;;5113223;27;20023;-85
2023/07/25 01:16:33;;;;;;;2.63;1.48;;;;;;;;;;5114663;27;20030;-86
2023/07/25 01:19:00;;;;;;;4.75;2.35;;;;;;;;;;5121262;27;20440;-84
2023/07/25 01:21:25;;;;;;;3.15;1.90;;;;;;;;;;5134294;27;20034;-86
2023/07/25 01:23:51;;;;;;;4.13;2.47;;;;;;;;;;5133651;27;20023;-86
2023/07/25 01:26:16;;;;;;;1.90;1.42;;;;;;;;;;5105695;27;20396;-86
2023/07/25 01:28:42;;;;;;;2.83;2.15;;;;;;;;;;5130833;27;20026;-86
2023/07/25 01:31:07;;;;;;;1.73;1.20;;;;;;;;;;5115241;27;20032;-87
2023/07/25 01:33:33;;;;;;;3.55;1.95;;;;;;;;;;5127234;27;20436;-86
2023/07/25 01:36:00;;;;;;;3.00;1.70;;;;;;;;;;5128442;27;20119;-86
2023/07/25 01:38:26;;;;;;;3.60;1.88;;;;;;;;;;5131681;27;20038;-85
2023/07/25 01:40:51;;;;;;;2.95;1.92;;;;;;;;;;5112250;27;20031;-85
2023/07/25 01:43:17;;;;;;;3.35;1.80;;;;;;;;;;5133603;27;20058;-86
2023/07/25 01:45:42;;;;;;;2.40;1.42;;;;;;;;;;5132653;27;20448;-87
2023/07/25 01:48:07;;;;;;;3.13;1.95;;;;;;;;;;5113988;27;20062;-86
2023/07/25 01:50:33;;;;;;;2.55;1.88;;;;;;;;;;5122106;27;20031;-87
2023/07/25 01:52:58;;;;;;;4.43;2.17;;;;;;;;;;5127055;27;20023;-84
2023/07/25 01:55:24;;;;;;;3.28;1.67;;;;;;;;;;5127168;27;20118;-85
2023/07/25 01:57:49;;;;;;;3.05;2.00;;;;;;;;;;5112991;27;20508;-85
2023/07/25 02:00:15;;;;;;;3.75;2.63;;;;;;;;;;5132744;27;20019;-84
2023/07/25 02:02:40;;;;;;;3.25;1.63;;;;;;;;;;5132290;27;20019;-85
2023/07/25 02:05:06;;;;;;;3.50;2.00;;;;;;;;;;5115531;27;20035;-84
2023/07/25 02:07:31;;;;;;;4.45;2.03;;;;;;;;;;5128620;27;20031;-85
2023/07/25 02:09:57;;;;;;;7.68;2.80;;;;;;;;;;5130425;27;20355;-84
2023/07/25 02:12:23;;;;;;;5.65;2.15;;;;;;;;;;5131985;27;20387;-86
2023/07/25 02:14:49;;;;;;;4.53;1.98;;;;;;;;;;5127431;27;20046;-86
2023/07/25 02:17:14;;;;;;;3.15;1.77;;;;;;;;;;5113625;27;20065;-84
2023/07/25 02:19:40;;;;;;;3.08;1.60;;;;;;;;;;5132660;27;20019;-87
2023/07/25 02:22:05;;;;;;;2.28;1.73;;;;;;;;;;5112809;27;20038;-85
2023/07/25 02:24:31;;;;;;;3.42;2.58;;;;;;;;;;5132103;27;20046;-86
2023/07/25 02:26:56;;;;;;;5.10;2.40;;;;;;;;;;5127825;27;20053;-84
2023/07/25 02:29:22;;;;;;;3.50;2.30;;;;;;;;;;5129878;27;20047;-86
2023/07/25 02:31:47;;;;;;;4.28;1.88;;;;;;;;;;5109691;27;20387;-87
2023/07/25 02:34:15;;;;;;;3.85;1.92;;;;;;;;;;5133095;27;20023;-83
2023/07/25 02:36:40;;;;;;;2.42;1.70;;;;;;;;;;5129530;27;20076;-84
2023/07/25 02:39:06;;;;;;;3.85;2.20;;;;;;;;;;5112402;27;20389;-85
2023/07/25 02:41:31;;;;;;;7.80;2.33;;;;;;;;;;5130961;27;20519;-83
2023/07/25 02:43:57;;;;;;;2.83;1.83;;;;;;;;;;5129506;27;20019;-82
2023/07/25 02:46:22;;;;;;;2.70;2.00;;;;;;;;;;5131367;28;20113;-85
2023/07/25 02:48:47;;;;;;;3.05;2.30;;;;;;;;;;5130560;27;20119;-86
2023/07/25 02:51:13;;;;;;;5.03;2.55;;;;;;;;;;5131674;28;20031;-85
2023/07/25 02:53:38;;;;;;;3.05;2.13;;;;;;;;;;5131612;28;20027;-84
2023/07/25 02:56:04;;;;;;;1.65;1.23;;;;;;;;;;5127193;28;20076;-83
2023/07/25 02:58:30;;;;;;;3.80;2.47;;;;;;;;;;5112706;28;20035;-85
2023/07/25 03:00:55;;;;;;;3.17;1.92;;;;;;;;;;5124425;28;20531;-86
2023/07/25 03:03:20;;;;;;;2.50;1.60;;;;;;;;;;5112835;28;20059;-86
2023/07/25 03:05:46;;;;;;;4.45;2.55;;;;;;;;;;5110399;28;20027;-84
2023/07/25 03:08:11;;;;;;;4.03;2.35;;;;;;;;;;5112985;28;20382;-84
2023/07/25 03:10:37;;;;;;;7.43;3.35;;;;;;;;;;5112266;28;20023;-85
2023/07/25 03:13:02;;;;;;;3.58;2.30;;;;;;;;;;5131279;28;20031;-83
2023/07/25 03:15:28;;;;;;;4.05;2.45;;;;;;;;;;5112404;28;20083;-84
2023/07/25 03:17:54;;;;;;;2.83;1.40;;;;;;;;;;5127321;28;20023;-85
2023/07/25 03:20:19;;;;;;;2.83;2.15;;;;;;;;;;5128398;27;20058;-83
2023/07/25 03:22:45;;;;;;;4.55;1.65;;;;;;;;;;5126666;27;20046;-84
2023/07/25 03:25:10;;;;;;;6.97;2.40;;;;;;;;;;5131476;28;20019;-84
2023/07/25 03:27:36;;;;;;;3.47;2.50;;;;;;;;;;5113143;28;20471;-85
2023/07/25 03:30:02;;;;;;;2.25;1.33;;;;;;;;;;5131869;27;20494;-86
2023/07/25 03:32:28;;;;;;;7.82;2.72;;;;;;;;;;5130590;27;20035;-85
2023/07/25 03:34:53;;;;;;;3.20;1.80;;;;;;;;;;5110838;28;20019;-83
2023/07/25 03:37:18;;;;;;;6.25;2.80;;;;;;;;;;5112263;28;20172;-84
2023/07/25 03:39:44;;;;;;;3.90;2.78;;;;;;;;;;5111117;28;20062;-83
2023/07/25 03:42:09;;;;;;;6.25;2.67;;;;;;;;;;5112045;28;20031;-85
2023/07/25 03:44:35;;;;;;;3.58;2.42;;;;;;;;;;5130708;28;20062;-83
2023/07/25 03:47:00;;;;;;;3.85;1.55;;;;;;;;;;5105287;28;20383;-86
2023/07/25 03:49:26;;;;;;;5.95;2.70;;;;;;;;;;5123477;28;20028;-87
2023/07/25 03:51:51;;;;;;;2.42;1.73;;;;;;;;;;5128159;28;20555;-85
2023/07/25 03:54:18;;;;;;;3.75;2.58;;;;;;;;;;5109581;28;20015;-86
2023/07/25 03:56:44;;;;;;;8.20;3.58;;;;;;;;;;5129221;27;20038;-86
2023/07/25 03:59:10;;;;;;;4.72;2.13;;;;;;;;;;5110012;28;20075;-87
2023/07/25 04:01:35;;;;;;;4.15;1.80;;;;;;;;;;5131169;27;20431;-85
2023/07/25 04:04:00;;;;;;;5.93;2.42;;;;;;;;;;5134376;27;20079;-85
2023/07/25 04:06:26;;;;;;;2.88;1.75;;;;;;;;;;5125358;27;20035;-85
2023/07/25 04:08:51;;;;;;;4.07;2.15;;;;;;;;;;5125527;27;20023;-85
2023/07/25 04:11:17;;;;;;;2.42;1.80;;;;;;;;;;5114666;27;20574;-87
2023/07/25 04:13:42;;;;;;;3.08;1.65;;;;;;;;;;5131429;27;20029;-82
2023/07/25 04:16:08;;;;;;;3.67;2.42;;;;;;;;;;5111025;27;20087;-88
2023/07/25 04:18:33;;;;;;;3.05;2.00;;;;;;;;;;5116787;27;20360;-85
2023/07/25 04:20:59;;;;;;;4.05;2.17;;;;;;;;;;5116788;27;20145;-87
2023/07/25 04:23:26;;;;;;;3.97;1.73;;;;;;;;;;5129382;27;20054;-87
2023/07/25 04:25:54;;;;;;;3.70;1.92;;;;;;;;;;5110118;27;20031;-88
2023/07/25 04:28:20;;;;;;;3.22;2.25;;;;;;;;;;5131844;27;20467;-85
2023/07/25 04:30:45;;;;;;;2.40;1.85;;;;;;;;;;5117872;27;20123;-87
2023/07/25 04:33:10;;;;;;;5.10;2.15;;;;;;;;;;5114936;27;20055;-88
2023/07/25 04:35:36;;;;;;;2.95;2.15;;;;;;;;;;5135105;27;20035;-87
2023/07/25 04:38:01;;;;;;;4.60;2.03;;;;;;;;;;5135771;27;20408;-85
2023/07/25 04:40:28;;;;;;;2.58;1.67;;;;;;;;;;5130088;27;20570;-87
2023/07/25 04:42:54;;;;;;;3.13;1.77;;;;;;;;;;5132717;27;20046;-87
2023/07/25 04:45:19;;;;;;;5.38;3.08;;;;;;;;;;5115323;27;20052;-86
2023/07/25 04:47:45;;;;;;;4.63;2.78;;;;;;;;;;5133957;27;20061;-87
2023/07/25 04:50:10;;;;;;;3.58;2.40;;;;;;;;;;5114010;27;20435;-87
2023/07/25 04:52:36;;;;;;;5.13;2.80;;;;;;;;;;5131766;27;20495;-88
2023/07/25 04:55:01;;;;;;;2.25;1.65;;;;;;;;;;5114173;27;20079;-87
2023/07/25 04:57:27;;;;;;;2.83;1.92;;;;;;;;;;5109216;27;20039;-88
2023/07/25 04:59:53;;;;;;;3.22;2.17;;;;;;;;;;5106947;27;20356;-89
2023/07/25 05:02:38;;;;;;;3.72;2.58;;;;;;;;;;5111388;27;20029;-89
2023/07/25 05:05:04;;;;;;;2.95;1.73;;;;;;;;;;5109881;27;20033;-90
2023/07/25 05:07:29;;;;;;;2.83;1.75;;;;;;;;;;5114154;27;20027;-88
2023/07/25 05:10:01;;;;;;;3.85;2.15;;;;;;;;;;5113529;27;20046;-86
2023/07/25 05:12:26;;;;;;;5.32;2.40;;;;;;;;;;5112101;27;20067;-86
2023/07/25 05:15:00;;;;;;;4.53;2.05;;;;;;;;;;5132014;27;20041;-88
2023/07/25 05:17:26;;;;;;;5.57;3.33;;;;;;;;;;5113626;27;20031;-88
2023/07/25 05:20:12;;;;;;;4.65;2.40;;;;;;;;;;5111019;27;20084;-86
2023/07/25 05:22:43;;;;;;;3.45;1.90;;;;;;;;;;5128344;27;20084;-88
2023/07/25 05:25:08;;;;;;;5.07;2.30;;;;;;;;;;5115340;27;20027;-88
2023/07/25 05:27:34;;;;;;;3.15;2.45;;;;;;;;;;5110247;27;20109;-85
2023/07/25 05:30:00;;;;;;;3.25;2.17;;;;;;;;;;5132457;27;20046;-86
2023/07/25 05:32:25;;;;;;;4.53;2.45;;;;;;;;;;5131601;27;20483;-87
2023/07/25 05:34:51;;;;;;;3.53;1.92;;;;;;;;;;5132043;27;20023;-87
2023/07/25 05:37:18;;;;;;;4.18;2.70;;;;;;;;;;5118865;27;20063;-85
2023/07/25 05:39:43;;;;;;;4.18;2.55;;;;;;;;;;5131283;27;20034;-86
2023/07/25 05:42:09;;;;;;;6.63;2.85;;;;;;;;;;5113777;27;20023;-88
2023/07/25 05:44:34;;;;;;;6.72;3.45;;;;;;;;;;5131755;27;20192;-89
2023/07/25 05:47:02;;;;;;;3.22;2.17;;;;;;;;;;5118699;27;20027;-90
2023/07/25 05:49:31;;;;;;;7.85;3.33;;;;;;;;;;5134612;27;20034;-89
2023/07/25 05:51:57;;;;;;;4.93;2.92;;;;;;;;;;5134063;27;20027;-89
2023/07/25 05:54:22;;;;;;;4.55;2.88;;;;;;;;;;5110847;27;20532;-88
2023/07/25 05:56:48;;;;;;;2.92;1.98;;;;;;;;;;5116608;27;20070;-89
2023/07/25 05:59:13;;;;;;;4.43;2.20;;;;;;;;;;5131633;27;20027;-87
2023/07/25 06:01:39;;;;;;;3.55;1.65;;;;;;;;;;5134461;27;20118;-88
2023/07/25 06:04:05;;;;;;;3.88;2.50;;;;;;;;;;5112736;27;20115;-86
2023/07/25 06:06:30;;;;;;;3.80;2.40;;;;;;;;;;5112406;27;20035;-87
2023/07/25 06:08:56;;;;;;;5.32;2.72;;;;;;;;;;5127589;27;20102;-88
2023/07/25 06:11:23;;;;;;;3.78;2.45;;;;;;;;;;5127943;27;20471;-86
2023/07/25 06:13:49;;;;;;;6.95;2.63;;;;;;;;;;5127744;27;20019;-87
2023/07/25 06:16:17;;;;;;;2.22;1.77;;;;;;;;;;5124076;27;20516;-87
2023/07/25 06:18:43;;;;;;;2.67;1.95;;;;;;;;;;5127775;27;20027;-87
2023/07/25 06:21:08;;;;;;;4.80;2.63;;;;;;;;;;5127203;27;20022;-86
2023/07/25 06:23:34;;;;;;;4.75;2.83;;;;;;;;;;5131325;27;20030;-87
2023/07/25 06:25:59;;;;;;;2.72;1.98;;;;;;;;;;5129186;27;20027;-87
2023/07/25 06:28:24;;;;;;;4.00;2.40;;;;;;;;;;5130931;27;20042;-87
2023/07/25 06:30:50;;;;;;;3.97;1.52;;;;;;;;;;5131620;27;20042;-87
2023/07/25 06:33:15;;;;;;;4.75;2.17;;;;;;;;;;5120566;27;20023;-87
2023/07/25 06:35:41;;;;;;;4.15;2.22;;;;;;;;;;5145105;27;20491;-86
2023/07/25 06:38:06;;;;;;;5.03;2.90;;;;;;;;;;5132616;27;20054;-89
2023/07/25 06:40:32;;;;;;;2.83;1.85;;;;;;;;;;5131380;27;20035;-86
2023/07/25 06:42:57;;;;;;;7.10;2.17;;;;;;;;;;5127683;27;20019;-88
2023/07/25 06:45:23;;;;;;;3.83;2.15;;;;;;;;;;5109839;28;20545;-85
2023/07/25 06:47:48;;;;;;;2.42;1.67;;;;;;;;;;5129645;28;20047;-88
2023/07/25 06:50:14;;;;;;;2.42;1.50;;;;;;;;;;5108101;28;20043;-87
2023/07/25 06:52:39;;;;;;;3.30;1.92;;;;;;;;;;5130356;28;20055;-87
2023/07/25 06:55:06;;;;;;;3.92;2.50;;;;;;;;;;5124098;28;20023;-87
2023/07/25 06:57:31;;;;;;;4.93;2.20;;;;;;;;;;5129751;28;20059;-86
2023/07/25 06:59:57;;;;;;;2.95;1.90;;;;;;;;;;5129372;28;20062;-85
2023/07/25 07:02:25;;;;;;;4.45;1.95;;;;;;;;;;5112001;28;20026;-87
2023/07/25 07:04:50;;;;;;;3.53;2.25;;;;;;;;;;5125423;27;20080;-86
2023/07/25 07:07:15;;;;;;;4.30;1.75;;;;;;;;;;5127812;28;20433;-86
2023/07/25 07:09:41;;;;;;;3.15;1.95;;;;;;;;;;5126907;28;20076;-84
2023/07/25 07:12:07;;;;;;;2.88;1.67;;;;;;;;;;5111386;28;20026;-86
2023/07/25 07:14:32;;;;;;;3.55;2.13;;;;;;;;;;5124298;27;20371;-87
2023/07/25 07:16:58;;;;;;;3.10;1.73;;;;;;;;;;5126913;28;20033;-86
2023/07/25 07:19:23;;;;;;;2.70;1.65;;;;;;;;;;5130079;28;20031;-87
2023/07/25 07:21:49;;;;;;;2.90;1.90;;;;;;;;;;5108782;28;20030;-86
2023/07/25 07:24:14;;;;;;;4.63;2.53;;;;;;;;;;5127950;28;20043;-86
2023/07/25 07:26:40;;;;;;;3.50;2.42;;;;;;;;;;5130247;28;20075;-87
2023/07/25 07:29:05;;;;;;;2.25;1.83;;;;;;;;;;5131220;28;20083;-89
2023/07/25 07:31:31;;;;;;;2.33;1.92;;;;;;;;;;5107916;28;20023;-87
2023/07/25 07:34:14;;;;;;;3.30;2.00;;;;;;;;;;5128636;28;20152;-88
2023/07/25 07:36:41;;;;;;;2.55;1.75;;;;;;;;;;5110180;27;20031;-88
2023/07/25 07:39:06;;;;;;;2.88;1.60;;;;;;;;;;5131488;27;20019;-84
2023/07/25 07:41:32;;;;;;;2.80;1.73;;;;;;;;;;5128942;27;20386;-86
2023/07/25 07:43:57;;;;;;;6.93;2.67;;;;;;;;;;5141188;27;20019;-84
2023/07/25 07:46:27;;;;;;;5.65;2.47;;;;;;;;;;5109191;27;20403;-86
2023/07/25 07:48:53;;;;;;;4.28;2.20;;;;;;;;;;5132074;27;20398;-85
2023/07/25 07:51:18;;;;;;;4.60;1.83;;;;;;;;;;5131089;27;20042;-83
2023/07/25 07:53:44;;;;;;;5.85;3.00;;;;;;;;;;5130333;27;20034;-86
2023/07/25 07:56:10;;;;;;;5.28;2.10;;;;;;;;;;5133715;27;20019;-84
2023/07/25 07:58:36;;;;;;;4.82;2.38;;;;;;;;;;5129161;27;20027;-85
2023/07/25 08:01:01;;;;;;;7.43;2.10;;;;;;;;;;5110739;27;20142;-85
2023/07/25 08:03:27;;;;;;;4.28;2.33;;;;;;;;;;5133100;27;20118;-85
2023/07/25 08:05:58;;;;;;;3.00;1.92;;;;;;;;;;5129869;27;20432;-85
2023/07/25 08:08:24;;;;;;;3.90;2.40;;;;;;;;;;5100752;27;20035;-84
2023/07/25 08:10:49;;;;;;;4.70;2.28;;;;;;;;;;5114130;27;20038;-86
2023/07/25 08:13:15;;;;;;;4.38;2.53;;;;;;;;;;5126083;27;20030;-85
2023/07/25 08:15:40;;;;;;;4.97;3.42;;;;;;;;;;5098655;27;20026;-84
2023/07/25 08:18:07;;;;;;;3.22;2.25;;;;;;;;;;5094304;27;20035;-84
2023/07/25 08:20:32;;;;;;;3.25;2.13;;;;;;;;;;5122050;27;20083;-85
2023/07/25 08:22:58;;;;;;;3.47;2.33;;;;;;;;;;5132666;27;20019;-85
2023/07/25 08:25:23;;;;;;;3.00;2.33;;;;;;;;;;5130032;27;20019;-84
2023/07/25 08:27:49;;;;;;;4.05;2.45;;;;;;;;;;5132524;27;20034;-84
2023/07/25 08:30:14;;;;;;;2.53;1.70;;;;;;;;;;5130004;27;20030;-84
2023/07/25 08:32:40;;;;;;;4.53;2.28;;;;;;;;;;5116712;27;20018;-85
2023/07/25 08:35:05;;;;;;;2.78;1.40;;;;;;;;;;5131960;27;20023;-85
2023/07/25 08:37:31;;;;;;;4.88;2.90;;;;;;;;;;5133233;27;20079;-84
2023/07/25 08:39:57;;;;;;;3.00;2.05;;;;;;;;;;5128504;27;20050;-86
2023/07/25 08:42:25;;;;;;;2.88;1.75;;;;;;;;;;5132203;27;20062;-86
2023/07/25 08:44:54;;;;;;;5.38;2.53;;;;;;;;;;5127589;27;20047;-87
2023/07/25 08:47:26;;;;;;;3.40;1.90;;;;;;;;;;5131616;27;20054;-87
2023/07/25 08:49:53;;;;;;;4.63;2.22;;;;;;;;;;5127298;27;20376;-86
2023/07/25 08:52:20;;;;;;;4.35;2.38;;;;;;;;;;5130922;27;20023;-86
2023/07/25 08:54:48;;;;;;;3.15;2.25;;;;;;;;;;5128771;27;20027;-86
2023/07/25 08:57:16;;;;;;;2.13;1.55;;;;;;;;;;5131403;27;20494;-88
2023/07/25 08:59:42;;;;;;;2.75;1.85;;;;;;;;;;5132958;27;20023;-83
2023/07/25 09:02:10;;;;;;;4.70;2.95;;;;;;;;;;5129693;27;20034;-81
2023/07/25 09:04:35;;;;;;;4.07;2.40;;;;;;;;;;5112738;27;20125;-82
2023/07/25 09:07:01;;;;;;;2.97;1.95;;;;;;;;;;5129401;27;20144;-81
2023/07/25 09:09:26;;;;;;;6.18;2.88;;;;;;;;;;5129194;27;20102;-83
2023/07/25 09:11:53;;;;;;;3.03;1.77;;;;;;;;;;5130403;27;20027;-82
2023/07/25 09:14:19;;;;;;;3.30;2.10;;;;;;;;;;5111601;27;20019;-81
2023/07/25 09:16:45;;;;;;;5.03;2.85;;;;;;;;;;5132604;27;20501;-83
2023/07/25 09:19:11;;;;;;;3.83;2.08;;;;;;;;;;5130722;27;20030;-82
2023/07/25 09:21:47;;;;;;;4.20;2.20;;;;;;;;;;5125282;27;20501;-82
2023/07/25 09:24:13;;;;;;;3.10;2.15;;;;;;;;;;5122936;27;20118;-82
2023/07/25 09:26:39;;;;;;;5.43;2.05;;;;;;;;;;5107041;27;20109;-79
2023/07/25 09:29:14;;;;;;;3.13;1.83;;;;;;;;;;5124238;27;20044;-81
2023/07/25 09:31:45;;;;;;;4.10;2.65;;;;;;;;;;5126218;27;20543;-81
2023/07/25 09:34:17;;;;;;;4.25;2.70;;;;;;;;;;5130698;27;20374;-81
2023/07/25 09:36:50;;;;;;;2.65;1.38;;;;;;;;;;5131294;27;20029;-84
2023/07/25 09:39:16;;;;;;;4.07;2.22;;;;;;;;;;5124769;27;20023;-81
2023/07/25 09:41:43;;;;;;;4.68;2.38;;;;;;;;;;5125897;27;20084;-79
2023/07/25 09:44:09;;;;;;;2.92;1.42;;;;;;;;;;5127476;27;21329;-82
2023/07/25 09:46:34;;;;;;;6.05;1.95;;;;;;;;;;5108549;27;20027;-86
2023/07/25 09:49:00;;;;;;;5.05;2.08;;;;;;;;;;5122423;27;20055;-89
2023/07/25 09:51:25;;;;;;;6.20;2.30;;;;;;;;;;5125934;27;20039;-84
2023/07/25 09:53:53;;;;;;;4.45;2.00;;;;;;;;;;5121816;27;20030;-86
2023/07/25 09:56:26;;;;;;;4.45;2.05;;;;;;;;;;5112145;27;20098;-89
2023/07/25 09:58:52;;;;;;;4.05;1.70;;;;;;;;;;5126807;27;20023;-86
2023/07/25 10:01:18;;;;;;;3.92;2.17;;;;;;;;;;5113828;27;20027;-87
2023/07/25 10:03:45;;;;;;;3.08;1.67;;;;;;;;;;5132097;27;20084;-90
2023/07/25 10:06:12;;;;;;;4.50;2.15;;;;;;;;;;5131836;27;20542;-86
2023/07/25 10:08:43;;;;;;;4.00;2.17;;;;;;;;;;5129060;27;20027;-87
2023/07/25 10:11:12;;;;;;;2.75;1.63;;;;;;;;;;5113556;27;20027;-87
2023/07/25 10:13:40;;;;;;;3.80;1.85;;;;;;;;;;5113600;27;20026;-86
2023/07/25 10:16:08;;;;;;;2.47;1.63;;;;;;;;;;5111051;27;20023;-88
2023/07/25 10:18:34;;;;;;;4.30;2.63;;;;;;;;;;5128729;27;20031;-87
2023/07/25 10:21:00;;;;;;;3.72;1.73;;;;;;;;;;5132220;27;20026;-88
2023/07/25 10:23:30;;;;;;;4.18;2.00;;;;;;;;;;5131759;27;20031;-88
2023/07/25 10:25:55;;;;;;;6.80;2.45;;;;;;;;;;5107600;27;20483;-88
2023/07/25 10:28:22;;;;;;;4.38;2.00;;;;;;;;;;5130152;27;20027;-89
2023/07/25 10:30:48;;;;;;;3.38;1.58;;;;;;;;;;5131371;27;20015;-87
2023/07/25 10:33:16;;;;;;;2.97;1.90;;;;;;;;;;5134493;27;20152;-88
2023/07/25 10:35:45;;;;;;;2.90;2.03;;;;;;;;;;5130823;27;20034;-88
2023/07/25 10:38:13;;;;;;;3.47;2.17;;;;;;;;;;5130206;27;20027;-88
2023/07/25 10:40:58;;;;;;;1.30;1.15;;;;;;;;;;5131403;27;20119;-88
2023/07/25 10:43:51;;;;;;;2.55;1.80;;;;;;;;;;5128533;27;20027;-86
2023/07/25 10:46:21;;;;;;;3.92;2.28;;;;;;;;;;5127115;27;20083;-89
2023/07/25 10:48:47;;;;;;;3.50;1.45;;;;;;;;;;5129015;27;20023;-90
2023/07/25 10:51:15;;;;;;;6.47;2.35;;;;;;;;;;5117478;27;20034;-90
2023/07/25 10:54:01;;;;;;;2.42;1.67;;;;;;;;;;5131077;28;20030;-88
2023/07/25 10:56:27;;;;;;;4.28;1.98;;;;;;;;;;5131524;28;20027;-88
2023/07/25 10:59:11;;;;;;;1.73;1.05;;;;;;;;;;5130226;27;20364;-87
2023/07/25 11:01:46;;;;;;;3.22;2.13;;;;;;;;;;5104145;28;20035;-88
2023/07/25 11:04:30;;;;;;;2.80;1.73;;;;;;;;;;5113020;28;20467;-90
2023/07/25 11:07:08;;;;;;;3.60;1.88;;;;;;;;;;5131609;28;20062;-88
2023/07/25 11:09:44;;;;;;;3.72;2.20;;;;;;;;;;5125014;28;20035;-88
2023/07/25 11:12:13;;;;;;;2.10;1.77;;;;;;;;;;5116384;27;20926;-87
2023/07/25 11:14:42;;;;;;;3.67;1.88;;;;;;;;;;5135101;27;20047;-88
2023/07/25 11:17:08;;;;;;;3.08;1.60;;;;;;;;;;5135658;27;20378;-88
2023/07/25 11:19:33;;;;;;;3.15;2.10;;;;;;;;;;5135196;27;20114;-86
2023/07/25 11:21:59;;;;;;;3.50;2.00;;;;;;;;;;5135323;27;20030;-87
2023/07/25 11:24:25;;;;;;;5.38;2.25;;;;;;;;;;5133502;27;20022;-86
2023/07/25 11:26:50;;;;;;;3.03;2.03;;;;;;;;;;5131927;27;20038;-85
2023/07/25 11:29:17;;;;;;;3.13;1.98;;;;;;;;;;5134697;27;20073;-89
2023/07/25 11:31:47;;;;;;;2.83;1.58;;;;;;;;;;5134204;27;20462;-89
2023/07/25 11:34:15;;;;;;;3.78;1.88;;;;;;;;;;5136135;27;20050;-86
2023/07/25 11:36:41;;;;;;;2.92;1.30;;;;;;;;;;5135449;27;20023;-88
2023/07/25 11:39:08;;;;;;;4.00;1.60;;;;;;;;;;5125046;27;20100;-86
2023/07/25 11:41:35;;;;;;;2.78;1.65;;;;;;;;;;5127044;27;20452;-88
2023/07/25 11:44:05;;;;;;;3.00;1.80;;;;;;;;;;5132232;27;20403;-89
2023/07/25 11:46:31;;;;;;;3.85;1.65;;;;;;;;;;5130706;27;20120;-88
2023/07/25 11:48:57;;;;;;;2.95;2.05;;;;;;;;;;5134044;27;20039;-85
2023/07/25 11:51:22;;;;;;;2.80;1.65;;;;;;;;;;5133508;27;20038;-87
2023/07/25 11:53:48;;;;;;;3.65;2.25;;;;;;;;;;5129465;27;20060;-91
2023/07/25 11:56:14;;;;;;;3.30;1.80;;;;;;;;;;5124217;27;20395;-86
2023/07/25 11:58:47;;;;;;;1.60;1.15;;;;;;;;;;5127789;27;20023;-84
2023/07/25 12:01:13;;;;;;;2.42;1.00;;;;;;;;;;5130139;27;20031;-86
2023/07/25 12:03:46;;;;;;;4.07;1.60;;;;;;;;;;5131481;27;20034;-84
2023/07/25 12:06:11;;;;;;;6.22;1.95;;;;;;;;;;5129545;27;20023;-82
2023/07/25 12:08:47;;;;;;;3.75;2.20;;;;;;;;;;5129807;27;20509;-83
2023/07/25 12:11:14;;;;;;;2.03;1.65;;;;;;;;;;5131432;27;20015;-88
2023/07/25 12:13:50;;;;;;;3.50;2.10;;;;;;;;;;5128048;27;20027;-86
2023/07/25 12:16:32;;;;;;;3.25;1.85;;;;;;;;;;5107802;27;20019;-87
2023/07/25 12:19:30;;;;;;;1.77;0.93;;;;;;;;;;5131317;27;20054;-86
2023/07/25 12:22:04;;;;;;;2.10;1.50;;;;;;;;;;5112630;28;20043;-89
2023/07/25 12:24:39;;;;;;;4.60;1.58;;;;;;;;;;5132282;27;20442;-87
2023/07/25 12:27:18;;;;;;;2.72;1.13;;;;;;;;;;5114407;27;20038;-85
2023/07/25 12:29:43;;;;;;;2.03;0.88;;;;;;;;;;5112152;27;20023;-86
2023/07/25 12:32:09;;;;;;;3.45;1.35;;;;;;;;;;5129550;27;20038;-89
2023/07/25 12:34:34;;;;;;;1.67;1.10;;;;;;;;;;5136900;27;20026;-86
2023/07/25 12:37:03;;;;;;;1.75;1.13;;;;;;;;;;5127889;27;20030;-86
2023/07/25 12:39:31;;;;;;;2.40;0.85;;;;;;;;;;5113548;27;20031;-85
2023/07/25 12:41:56;;;;;;;2.35;1.45;;;;;;;;;;5112892;27;20110;-87
2023/07/25 12:44:22;;;;;;;1.92;1.10;;;;;;;;;;5113896;27;20580;-84
2023/07/25 12:46:47;;;;;;;1.83;1.25;;;;;;;;;;5133669;27;20498;-84
2023/07/25 12:49:13;;;;;;;1.98;1.30;;;;;;;;;;5113253;27;20545;-83
2023/07/25 12:51:38;;;;;;;0.70;0.70;;;;;;;;;;5133574;27;20029;-84
2023/07/25 12:54:04;;;;;;;3.58;1.10;;;;;;;;;;5132422;27;20029;-84
2023/07/25 12:56:29;;;;;;;1.73;1.00;;;;;;;;;;5133483;27;20030;-82
2023/07/25 12:58:55;;;;;;;1.08;0.80;;;;;;;;;;5129344;27;20076;-83
2023/07/25 13:01:20;;;;;;;2.72;1.38;;;;;;;;;;5129207;27;20034;-85
2023/07/25 13:03:46;;;;;;;1.88;1.33;;;;;;;;;;5124792;27;20023;-83
2023/07/25 13:06:11;;;;;;;6.03;1.45;;;;;;;;;;5133010;27;20027;-85
2023/07/25 13:08:37;;;;;;;3.40;0.95;;;;;;;;;;5131341;27;20072;-87
2023/07/25 13:11:02;;;;;;;1.58;1.15;;;;;;;;;;5129617;27;20368;-86
2023/07/25 13:13:28;;;;;;;1.33;0.88;;;;;;;;;;5122495;27;20124;-84
2023/07/25 13:15:54;;;;;;;2.78;1.35;;;;;;;;;;5125823;27;20622;-87
2023/07/25 13:18:19;;;;;;;1.95;1.25;;;;;;;;;;5114221;27;20193;-84
2023/07/25 13:20:45;;;;;;;2.50;1.02;;;;;;;;;;5133034;27;20019;-86
2023/07/25 13:23:13;;;;;;;1.98;1.00;;;;;;;;;;5130922;27;20485;-85
2023/07/25 13:25:44;;;;;;;3.20;1.23;;;;;;;;;;5132802;27;20459;-87
2023/07/25 13:28:10;;;;;;;1.85;0.80;;;;;;;;;;5128240;27;20047;-86
2023/07/25 13:30:35;;;;;;;2.20;0.77;;;;;;;;;;5114541;27;20038;-86
2023/07/25 13:33:02;;;;;;;1.17;0.90;;;;;;;;;;5129614;27;20031;-86
2023/07/25 13:35:28;;;;;;;2.95;0.90;;;;;;;;;;5131972;27;20027;-87
2023/07/25 13:37:54;;;;;;;1.80;1.20;;;;;;;;;;5132592;27;20485;-86
2023/07/25 13:40:19;;;;;;;2.85;1.58;;;;;;;;;;5113294;27;20038;-87
2023/07/25 13:42:44;;;;;;;1.85;0.93;;;;;;;;;;5132102;27;20110;-88
2023/07/25 13:45:10;;;;;;;0.80;0.65;;;;;;;;;;5130368;27;20054;-84
2023/07/25 13:47:35;;;;;;;6.88;1.13;;;;;;;;;;5125832;27;20023;-88
2023/07/25 13:50:02;;;;;;;2.78;1.33;;;;;;;;;;5132210;27;20106;-88
2023/07/25 13:52:29;;;;;;;1.02;0.90;;;;;;;;;;5112828;27;20047;-86
2023/07/25 13:54:56;;;;;;;1.30;0.88;;;;;;;;;;5127001;27;20139;-86
2023/07/25 13:57:21;;;;;;;3.08;1.13;;;;;;;;;;5112284;27;20030;-86
2023/07/25 13:59:47;;;;;;;2.63;1.45;;;;;;;;;;5126771;27;20023;-88
2023/07/25 14:02:12;;;;;;;2.45;1.13;;;;;;;;;;5112570;27;20036;-86
2023/07/25 14:04:39;;;;;;;1.15;0.80;;;;;;;;;;5131276;27;20098;-86
2023/07/25 14:07:05;;;;;;;0.77;0.77;;;;;;;;;;5126106;27;20026;-87
2023/07/25 14:09:31;;;;;;;3.33;1.52;;;;;;;;;;5131081;27;20050;-88
2023/07/25 14:11:56;;;;;;;1.63;0.82;;;;;;;;;;5129288;27;20471;-86
2023/07/25 14:14:22;;;;;;;1.33;0.95;;;;;;;;;;5127091;27;20023;-85
2023/07/25 14:16:48;;;;;;;1.95;1.00;;;;;;;;;;5127755;27;20038;-87
2023/07/25 14:19:13;;;;;;;2.25;1.15;;;;;;;;;;5127213;27;20034;-87
2023/07/25 14:21:39;;;;;;;1.60;0.80;;;;;;;;;;5128361;27;20106;-88
2023/07/25 15:17:22;;;;;;;2.88;1.15;;;;;;;;;;5083435;27;20459;-84
2023/07/25 15:20:03;;;;;;;2.70;0.88;;;;;;;;;;5085314;28;20055;-84
2023/07/25 15:22:29;;;;;;;1.70;0.82;;;;;;;;;;5075080;28;20024;-84
2023/07/25 15:24:55;;;;;;;3.08;1.13;;;;;;;;;;5082006;28;20558;-85
2023/07/25 15:27:21;;;;;;;0.85;0.70;;;;;;;;;;5083772;28;20046;-84
2023/07/25 15:29:47;;;;;;;1.80;0.73;;;;;;;;;;5083632;28;20029;-84
2023/07/25 15:32:13;;;;;;;2.30;0.63;;;;;;;;;;5080832;28;20057;-85
2023/07/25 15:34:38;;;;;;;1.38;0.80;;;;;;;;;;5083833;28;20448;-84